createdAt,value
2023-03-07T00:01:25.797Z,26.17
2023-03-07T00:03:53.857Z,31.67
2023-03-07T00:06:21.715Z,28.93
2023-03-07T00:08:50.621Z,26.00
2023-03-07T00:11:20.440Z,25.87
2023-03-07T00:13:48.773Z,30.27
2023-03-07T00:16:18.393Z,29.53
2023-03-07T00:18:46.550Z,24.33
2023-03-07T00:21:17.016Z,26.10
2023-03-07T00:23:46.578Z,26.27
2023-03-07T00:26:16.251Z,27.73
2023-03-07T00:28:47.792Z,32.80
2023-03-07T00:31:16.070Z,24.33
2023-03-07T00:33:44.121Z,29.47
2023-03-07T00:36:14.174Z,26.33
2023-03-07T00:38:42.639Z,27.30
2023-03-07T00:41:12.270Z,26.20
2023-03-07T00:43:40.582Z,25.93
2023-03-07T00:46:10.883Z,22.83
2023-03-07T00:48:40.223Z,27.43
2023-03-07T00:51:09.868Z,21.03
2023-03-07T00:53:38.305Z,21.50
2023-03-07T00:56:08.199Z,23.60
2023-03-07T00:58:37.413Z,23.97
2023-03-07T01:01:06.721Z,23.60
2023-03-07T01:03:36.466Z,25.15
2023-03-07T01:06:04.912Z,20.53
2023-03-07T01:08:32.739Z,23.43
2023-03-07T01:11:01.885Z,24.07
2023-03-07T01:13:30.898Z,19.50
2023-03-07T01:16:08.149Z,23.03
2023-03-07T01:18:37.443Z,24.20
2023-03-07T01:21:12.840Z,24.30
2023-03-07T01:23:40.595Z,20.30
2023-03-07T01:26:08.332Z,21.80
2023-03-07T01:28:36.084Z,17.43
2023-03-07T01:31:04.031Z,19.97
2023-03-07T01:33:31.740Z,19.40
2023-03-07T01:36:00.897Z,18.70
2023-03-07T01:38:33.763Z,19.80
2023-03-07T01:41:02.081Z,22.17
2023-03-07T01:43:32.027Z,18.77
2023-03-07T01:46:35.077Z,25.10
2023-03-07T01:49:09.421Z,17.73
2023-03-07T01:51:41.747Z,17.07
2023-03-07T01:54:12.581Z,17.20
2023-03-07T01:56:40.846Z,19.77
2023-03-07T01:59:09.541Z,21.37
2023-03-07T02:01:38.181Z,20.13
2023-03-07T02:04:13.396Z,18.00
2023-03-07T02:06:42.481Z,19.73
2023-03-07T02:09:15.603Z,19.40
2023-03-07T02:11:45.178Z,20.57
2023-03-07T02:14:13.176Z,19.37
2023-03-07T02:16:41.466Z,19.13
2023-03-07T02:19:21.666Z,17.73
2023-03-07T02:22:00.990Z,16.53
2023-03-07T02:24:34.580Z,16.30
2023-03-07T02:27:03.700Z,15.40
2023-03-07T02:29:31.512Z,15.47
2023-03-07T02:31:59.224Z,17.57
2023-03-07T02:34:28.744Z,17.77
2023-03-07T02:37:01.934Z,15.07
2023-03-07T02:39:30.858Z,16.42
2023-03-07T02:42:01.479Z,14.73
2023-03-07T02:44:30.723Z,14.87
2023-03-07T02:46:58.440Z,15.93
2023-03-07T02:49:26.182Z,18.20
2023-03-07T02:51:57.499Z,16.40
2023-03-07T02:54:26.025Z,13.63
2023-03-07T02:56:54.018Z,14.33
2023-03-07T02:59:21.768Z,14.77
2023-03-07T03:01:50.918Z,15.03
2023-03-07T03:04:18.703Z,12.80
2023-03-07T03:06:46.442Z,15.97
2023-03-07T03:09:14.153Z,14.77
2023-03-07T03:11:41.886Z,17.33
2023-03-07T03:14:09.652Z,15.17
2023-03-07T03:16:37.441Z,14.23
2023-03-07T03:19:06.571Z,13.40
2023-03-07T03:21:34.328Z,14.77
2023-03-07T03:24:05.601Z,13.07
2023-03-07T03:26:33.692Z,11.80
2023-03-07T03:29:01.461Z,12.67
2023-03-07T03:31:30.361Z,14.00
2023-03-07T03:33:58.328Z,12.03
2023-03-07T03:36:28.288Z,12.27
2023-03-07T03:38:57.349Z,12.37
2023-03-07T03:41:25.742Z,13.53
2023-03-07T03:43:53.904Z,12.50
2023-03-07T03:46:21.796Z,13.30
2023-03-07T03:48:53.545Z,12.90
2023-03-07T03:51:21.613Z,11.67
2023-03-07T03:53:50.988Z,12.73
2023-03-07T03:56:20.438Z,12.50
2023-03-07T03:58:49.121Z,11.50
2023-03-07T04:01:17.320Z,10.90
2023-03-07T04:03:47.244Z,11.60
2023-03-07T04:06:18.496Z,12.27
2023-03-07T04:08:47.299Z,12.27
2023-03-07T04:11:16.481Z,13.97
2023-03-07T04:13:44.313Z,13.00
2023-03-07T04:16:12.126Z,12.03
2023-03-07T04:18:40.628Z,12.30
2023-03-07T04:21:08.512Z,11.70
2023-03-07T04:23:36.272Z,12.93
2023-03-07T04:26:06.377Z,18.50
2023-03-07T04:28:44.838Z,15.00
2023-03-07T04:31:14.081Z,16.70
2023-03-07T04:33:42.333Z,15.60
2023-03-07T04:36:10.860Z,16.40
2023-03-07T04:38:40.354Z,17.13
2023-03-07T04:41:08.957Z,17.37
2023-03-07T04:43:37.990Z,15.30
2023-03-07T04:46:06.398Z,14.97
2023-03-07T04:48:34.121Z,15.50
2023-03-07T04:51:01.858Z,16.93
2023-03-07T04:53:29.721Z,14.97
2023-03-07T04:55:59.518Z,15.47
2023-03-07T04:58:27.421Z,15.20
2023-03-07T05:00:57.718Z,15.13
2023-03-07T05:03:26.552Z,15.63
2023-03-07T05:05:55.045Z,15.60
2023-03-07T05:08:23.439Z,16.07
2023-03-07T05:10:51.314Z,16.63
2023-03-07T05:13:19.174Z,14.53
2023-03-07T05:15:52.426Z,12.70
2023-03-07T05:18:22.265Z,15.00
2023-03-07T05:20:50.786Z,13.80
2023-03-07T05:23:19.711Z,16.83
2023-03-07T05:25:47.816Z,13.60
2023-03-07T05:28:16.809Z,13.47
2023-03-07T05:30:44.928Z,16.27
2023-03-07T05:33:12.786Z,16.07
2023-03-07T05:35:41.899Z,14.60
2023-03-07T05:38:09.723Z,16.40
2023-03-07T05:40:37.802Z,14.70
2023-03-07T05:43:05.826Z,15.10
2023-03-07T05:45:33.565Z,14.47
2023-03-07T05:48:01.269Z,12.27
2023-03-07T05:50:29.128Z,15.73
2023-03-07T05:52:58.192Z,14.33
2023-03-07T05:55:26.050Z,13.97
2023-03-07T05:57:53.765Z,11.07
2023-03-07T06:00:22.649Z,12.73
2023-03-07T06:02:50.386Z,12.87
2023-03-07T06:05:18.346Z,11.30
2023-03-07T06:07:46.107Z,13.33
2023-03-07T06:10:15.183Z,10.37
2023-03-07T06:12:42.982Z,11.27
2023-03-07T06:15:11.219Z,12.37
2023-03-07T06:17:40.687Z,12.40
2023-03-07T06:20:09.909Z,12.40
2023-03-07T06:22:38.169Z,11.23
2023-03-07T06:25:06.710Z,11.57
2023-03-07T06:27:37.004Z,12.17
2023-03-07T06:30:06.703Z,11.10
2023-03-07T06:32:34.614Z,11.47
2023-03-07T06:35:02.392Z,11.20
2023-03-07T06:37:30.184Z,9.40
2023-03-07T06:39:58.042Z,9.87
2023-03-07T06:42:25.870Z,11.00
2023-03-07T06:44:54.991Z,9.03
2023-03-07T06:47:22.777Z,8.83
2023-03-07T06:49:50.501Z,10.40
2023-03-07T06:52:18.245Z,8.37
2023-03-07T06:54:46.034Z,11.80
2023-03-07T06:57:13.762Z,9.30
2023-03-07T06:59:41.526Z,9.33
2023-03-07T07:02:15.984Z,8.10
2023-03-07T07:04:43.845Z,7.63
2023-03-07T07:07:11.603Z,7.47
2023-03-07T07:09:39.355Z,8.30
2023-03-07T07:12:07.800Z,8.73
2023-03-07T07:14:35.686Z,11.30
2023-03-07T07:17:03.545Z,8.67
2023-03-07T07:19:32.919Z,8.67
2023-03-07T07:22:00.655Z,8.40
2023-03-07T07:24:28.369Z,7.80
2023-03-07T07:26:56.631Z,8.80
2023-03-07T07:29:24.901Z,7.37
2023-03-07T07:31:52.749Z,8.47
2023-03-07T07:34:20.521Z,7.30
2023-03-07T07:36:50.633Z,6.73
2023-03-07T07:39:18.378Z,6.70
2023-03-07T07:41:47.858Z,7.10
2023-03-07T07:44:15.608Z,8.10
2023-03-07T07:46:43.323Z,8.10
2023-03-07T07:49:11.074Z,6.70
2023-03-07T07:51:40.763Z,7.80
2023-03-07T07:54:10.466Z,6.50
2023-03-07T07:56:38.208Z,6.40
2023-03-07T07:59:05.950Z,7.57
2023-03-07T08:01:33.955Z,5.97
2023-03-07T08:04:01.694Z,7.10
2023-03-07T08:06:30.788Z,7.00
2023-03-07T08:09:00.029Z,6.90
2023-03-07T08:11:29.181Z,7.07
2023-03-07T08:13:56.920Z,6.80
2023-03-07T08:16:24.881Z,7.17
2023-03-07T08:18:54.370Z,7.37
2023-03-07T08:21:22.361Z,6.40
2023-03-07T08:23:50.085Z,6.50
2023-03-07T08:26:18.523Z,5.93
2023-03-07T08:28:47.877Z,6.30
2023-03-07T08:31:18.708Z,7.13
2023-03-07T08:33:48.066Z,5.87
2023-03-07T08:36:16.504Z,6.87
2023-03-07T08:38:44.539Z,6.20
2023-03-07T08:41:12.294Z,6.60
2023-03-07T08:43:40.198Z,6.03
2023-03-07T08:46:09.370Z,6.63
2023-03-07T08:48:37.109Z,7.10
2023-03-07T08:51:06.997Z,6.57
2023-03-07T08:53:34.966Z,7.30
2023-03-07T08:56:07.331Z,7.70
2023-03-07T08:58:35.142Z,6.10
2023-03-07T09:01:03.554Z,11.50
2023-03-07T09:03:33.113Z,7.93
2023-03-07T09:06:01.208Z,7.33
2023-03-07T09:08:29.024Z,7.50
2023-03-07T09:10:59.657Z,8.83
2023-03-07T09:13:27.473Z,8.57
2023-03-07T09:15:55.242Z,9.93
2023-03-07T09:18:23.443Z,7.50
2023-03-07T09:20:52.535Z,9.33
2023-03-07T09:23:20.265Z,8.67
2023-03-07T09:25:48.017Z,15.87
2023-03-07T09:28:15.836Z,9.70
2023-03-07T09:30:43.724Z,9.57
2023-03-07T09:33:11.497Z,8.67
2023-03-07T09:35:39.865Z,11.90
2023-03-07T09:38:08.992Z,8.23
2023-03-07T09:40:38.292Z,8.33
2023-03-07T09:43:14.683Z,8.73
2023-03-07T09:45:54.457Z,7.83
2023-03-07T09:48:43.628Z,7.50
2023-03-07T09:51:17.882Z,7.13
2023-03-07T09:53:51.497Z,7.87
2023-03-07T09:56:24.676Z,7.40
2023-03-07T09:58:57.721Z,8.40
2023-03-07T10:01:28.625Z,7.30
2023-03-07T10:04:01.829Z,7.03
2023-03-07T10:06:34.707Z,6.60
2023-03-07T10:09:06.183Z,6.90
2023-03-07T10:11:54.112Z,7.10
2023-03-07T10:14:38.886Z,6.50
2023-03-07T10:17:17.350Z,7.17
2023-03-07T10:19:50.260Z,6.80
2023-03-07T10:22:23.198Z,6.80
2023-03-07T10:25:06.193Z,7.03
2023-03-07T10:27:34.730Z,7.10
2023-03-07T10:30:09.966Z,6.40
2023-03-07T10:32:41.460Z,6.00
2023-03-07T10:35:19.047Z,6.17
2023-03-07T10:37:51.197Z,6.30
2023-03-07T10:40:32.092Z,5.93
2023-03-07T10:43:00.598Z,5.70
2023-03-07T10:45:31.944Z,6.60
2023-03-07T10:48:00.861Z,5.40
2023-03-07T10:50:36.464Z,5.70
2023-03-07T10:53:06.469Z,5.67
2023-03-07T10:55:41.230Z,5.50
2023-03-07T10:58:27.654Z,5.30
2023-03-07T11:01:12.272Z,6.10
2023-03-07T11:03:52.789Z,6.43
2023-03-07T11:06:37.152Z,6.67
2023-03-07T11:09:16.797Z,5.73
2023-03-07T11:11:52.515Z,5.80
2023-03-07T11:14:21.736Z,5.87
2023-03-07T11:16:52.153Z,7.00
2023-03-07T11:19:29.966Z,7.53
2023-03-07T11:21:59.674Z,8.10
2023-03-07T11:24:29.953Z,6.10
2023-03-07T11:27:00.769Z,6.50
2023-03-07T11:29:29.270Z,5.70
2023-03-07T11:32:05.859Z,6.43
2023-03-07T11:34:40.687Z,5.97
2023-03-07T11:37:27.518Z,6.47
2023-03-07T11:40:16.526Z,6.30
2023-03-07T11:42:53.106Z,9.57
2023-03-07T11:45:34.318Z,6.40
2023-03-07T11:48:13.306Z,6.40
2023-03-07T11:50:43.416Z,6.30
2023-03-07T11:53:30.195Z,6.00
2023-03-07T11:56:16.404Z,6.87
2023-03-07T11:59:17.114Z,6.57
2023-03-07T12:01:51.891Z,7.10
2023-03-07T12:04:44.495Z,7.10
2023-03-07T12:07:39.150Z,6.00
2023-03-07T12:10:13.583Z,6.82
2023-03-07T12:12:54.986Z,7.50
2023-03-07T12:15:35.999Z,5.60
2023-03-07T12:18:24.642Z,6.57
2023-03-07T12:21:04.353Z,5.87
2023-03-07T12:23:37.909Z,5.87
2023-03-07T12:26:12.879Z,5.90
2023-03-07T12:28:46.453Z,8.90
2023-03-07T12:31:18.774Z,6.23
2023-03-07T12:33:57.522Z,5.67
2023-03-07T12:36:34.030Z,5.60
2023-03-07T12:39:09.049Z,6.83
2023-03-07T12:41:47.156Z,6.20
2023-03-07T12:44:19.682Z,6.40
2023-03-07T12:46:52.203Z,7.50
2023-03-07T12:49:32.271Z,6.90
2023-03-07T12:52:09.456Z,9.03
2023-03-07T12:54:40.515Z,5.83
2023-03-07T12:57:12.678Z,5.70
2023-03-07T12:59:44.448Z,6.43
2023-03-07T13:02:14.792Z,6.60
2023-03-07T13:04:44.192Z,5.80
2023-03-07T13:07:16.449Z,6.63
2023-03-07T13:09:46.444Z,6.70
2023-03-07T13:12:33.035Z,5.70
2023-03-07T13:15:02.162Z,6.00
2023-03-07T13:18:01.921Z,5.93
2023-03-07T13:20:42.848Z,5.80
2023-03-07T13:23:28.557Z,5.73
2023-03-07T13:26:14.036Z,6.37
2023-03-07T13:28:53.012Z,5.90
2023-03-07T13:31:45.142Z,6.03
2023-03-07T13:34:46.671Z,6.83
2023-03-07T13:37:53.478Z,6.47
2023-03-07T13:40:56.369Z,8.30
2023-03-07T13:44:01.313Z,7.03
2023-03-07T13:46:47.723Z,6.10
2023-03-07T13:49:45.814Z,5.90
2023-03-07T13:52:44.034Z,6.30
2023-03-07T13:55:26.554Z,5.80
2023-03-07T13:57:57.634Z,7.07
2023-03-07T14:00:34.976Z,6.20
2023-03-07T14:03:02.998Z,6.00
2023-03-07T14:05:34.305Z,6.33
2023-03-07T14:08:03.688Z,6.77
2023-03-07T14:10:32.674Z,5.80
2023-03-07T14:13:20.325Z,5.40
2023-03-07T14:16:01.690Z,6.43
2023-03-07T14:18:43.370Z,8.53
2023-03-07T14:21:20.918Z,5.77
2023-03-07T14:24:08.418Z,5.50
2023-03-07T14:26:38.774Z,6.10
2023-03-07T14:29:16.788Z,5.50
2023-03-07T14:31:47.794Z,6.23
2023-03-07T14:34:26.180Z,5.67
2023-03-07T14:36:56.084Z,8.83
2023-03-07T14:39:25.671Z,6.33
2023-03-07T14:42:06.431Z,6.20
2023-03-07T14:44:55.807Z,5.90
2023-03-07T14:47:47.497Z,6.27
2023-03-07T14:50:18.695Z,5.90
2023-03-07T14:52:47.660Z,7.40
2023-03-07T14:55:18.617Z,5.60
2023-03-07T14:57:49.524Z,5.90
2023-03-07T15:00:24.725Z,5.87
2023-03-07T15:02:55.432Z,5.47
2023-03-07T15:05:25.718Z,6.23
2023-03-07T15:07:54.842Z,5.47
2023-03-07T15:10:27.526Z,5.70
2023-03-07T15:12:57.236Z,5.50
2023-03-07T15:15:29.908Z,5.30
2023-03-07T15:18:03.987Z,5.30
2023-03-07T15:20:32.496Z,5.90
2023-03-07T15:23:05.045Z,6.93
2023-03-07T15:25:33.579Z,6.10
2023-03-07T15:28:04.301Z,5.13
2023-03-07T15:30:34.877Z,6.40
2023-03-07T15:33:25.732Z,5.97
2023-03-07T15:36:26.658Z,5.27
2023-03-07T15:39:13.640Z,5.40
2023-03-07T15:41:41.373Z,5.03
2023-03-07T15:44:21.223Z,5.70
2023-03-07T15:46:51.276Z,5.10
2023-03-07T15:49:23.530Z,7.00
2023-03-07T15:51:54.224Z,5.87
2023-03-07T15:54:31.847Z,5.50
2023-03-07T15:57:04.206Z,6.43
2023-03-07T15:59:34.917Z,5.60
2023-03-07T16:02:34.877Z,5.70
2023-03-07T16:05:06.613Z,5.40
2023-03-07T16:07:34.415Z,6.23
2023-03-07T16:10:02.244Z,5.60
2023-03-07T16:12:30.021Z,5.47
2023-03-07T16:14:58.995Z,5.93
2023-03-07T16:17:32.625Z,6.17
2023-03-07T16:20:00.355Z,5.40
2023-03-07T16:22:30.772Z,6.17
2023-03-07T16:24:58.836Z,6.83
2023-03-07T16:27:26.654Z,8.33
2023-03-07T16:29:54.794Z,7.17
2023-03-07T16:32:23.573Z,5.70
2023-03-07T16:34:51.697Z,6.00
2023-03-07T16:37:20.547Z,9.40
2023-03-07T16:39:49.622Z,6.80
2023-03-07T16:42:20.768Z,8.00
2023-03-07T16:44:49.345Z,7.00
2023-03-07T16:47:18.612Z,6.70
2023-03-07T16:49:46.882Z,6.53
2023-03-07T16:52:15.535Z,7.43
2023-03-07T16:54:43.402Z,9.23
2023-03-07T16:57:15.991Z,6.40
2023-03-07T16:59:46.958Z,8.43
2023-03-07T17:02:17.502Z,6.57
2023-03-07T17:04:45.892Z,7.60
2023-03-07T17:07:17.906Z,8.43
2023-03-07T17:09:46.156Z,6.07
2023-03-07T17:12:15.704Z,5.90
2023-03-07T17:14:44.379Z,7.00
2023-03-07T17:17:17.727Z,7.37
2023-03-07T17:19:45.457Z,8.23
2023-03-07T17:22:13.247Z,7.00
2023-03-07T17:24:40.970Z,13.30
2023-03-07T17:27:09.516Z,6.10
2023-03-07T17:29:41.276Z,6.00
2023-03-07T17:32:09.728Z,8.17
2023-03-07T17:34:38.694Z,6.87
2023-03-07T17:37:07.769Z,7.03
2023-03-07T17:39:36.006Z,8.43
2023-03-07T17:42:04.025Z,8.40
2023-03-07T17:44:32.531Z,8.53
2023-03-07T17:47:01.790Z,7.90
2023-03-07T17:49:33.944Z,9.10
2023-03-07T17:52:01.656Z,6.70
2023-03-07T17:54:29.378Z,5.83
2023-03-07T17:56:57.181Z,7.93
2023-03-07T17:59:24.953Z,7.10
2023-03-07T18:01:52.668Z,10.50
2023-03-07T18:04:21.721Z,7.47
2023-03-07T18:06:49.485Z,5.87
2023-03-07T18:09:18.671Z,6.40
2023-03-07T18:11:46.399Z,6.40
2023-03-07T18:14:14.138Z,6.13
2023-03-07T18:16:43.743Z,8.70
2023-03-07T18:19:23.974Z,10.23
2023-03-07T18:21:55.262Z,7.83
2023-03-07T18:24:26.060Z,7.53
2023-03-07T18:26:54.424Z,6.40
2023-03-07T18:29:22.729Z,10.38
2023-03-07T18:31:50.743Z,8.03
2023-03-07T18:34:18.594Z,8.53
2023-03-07T18:36:47.842Z,6.47
2023-03-07T18:39:16.881Z,7.47
2023-03-07T18:41:44.725Z,8.80
2023-03-07T18:44:12.623Z,6.50
2023-03-07T18:46:40.362Z,6.43
2023-03-07T18:49:08.092Z,12.07
2023-03-07T18:51:35.801Z,13.87
2023-03-07T18:54:03.934Z,15.50
2023-03-07T18:56:33.390Z,9.93
2023-03-07T18:59:01.211Z,8.53
2023-03-07T19:01:30.532Z,9.90
2023-03-07T19:04:02.151Z,9.30
2023-03-07T19:06:33.590Z,7.60
2023-03-07T19:09:03.422Z,9.37
2023-03-07T19:11:33.088Z,10.33
2023-03-07T19:14:00.844Z,7.87
2023-03-07T19:16:29.384Z,9.83
2023-03-07T19:18:59.467Z,8.47
2023-03-07T19:21:29.467Z,8.17
2023-03-07T19:23:58.899Z,7.40
2023-03-07T19:26:27.247Z,16.10
2023-03-07T19:28:58.121Z,9.00
2023-03-07T19:31:27.965Z,8.10
2023-03-07T19:33:56.761Z,8.70
2023-03-07T19:36:27.434Z,7.50
2023-03-07T19:38:58.851Z,11.13
2023-03-07T19:41:27.986Z,8.63
2023-03-07T19:43:58.739Z,5.90
2023-03-07T19:46:26.947Z,7.70
2023-03-07T19:48:55.016Z,10.37
2023-03-07T19:51:24.862Z,9.07
2023-03-07T19:53:55.320Z,7.80
2023-03-07T19:56:27.098Z,8.07
2023-03-07T19:58:55.352Z,6.83
2023-03-07T20:01:25.439Z,8.17
2023-03-07T20:03:54.287Z,9.63
2023-03-07T20:06:24.071Z,6.97
2023-03-07T20:08:53.268Z,9.50
2023-03-07T20:11:25.692Z,6.63
2023-03-07T20:13:56.115Z,8.90
2023-03-07T20:16:28.900Z,8.20
2023-03-07T20:18:58.122Z,13.53
2023-03-07T20:21:28.368Z,9.40
2023-03-07T20:24:02.077Z,6.73
2023-03-07T20:26:32.441Z,7.03
2023-03-07T20:29:01.665Z,7.37
2023-03-07T20:31:31.793Z,6.47
2023-03-07T20:34:00.914Z,10.43
2023-03-07T20:36:32.155Z,7.17
2023-03-07T20:39:01.267Z,7.17
2023-03-07T20:41:30.811Z,7.43
2023-03-07T20:43:59.923Z,5.90
2023-03-07T20:46:27.801Z,6.80
2023-03-07T20:48:58.121Z,8.20
2023-03-07T20:51:28.769Z,6.60
2023-03-07T20:53:58.707Z,11.60
2023-03-07T20:56:27.667Z,5.93
2023-03-07T20:58:56.161Z,7.23
2023-03-07T21:01:26.264Z,7.90
2023-03-07T21:03:54.644Z,10.10
2023-03-07T21:06:23.745Z,6.10
2023-03-07T21:08:51.436Z,8.70
2023-03-07T21:11:21.575Z,9.03
2023-03-07T21:13:50.303Z,6.27
2023-03-07T21:16:19.596Z,6.83
2023-03-07T21:18:47.629Z,9.13
2023-03-07T21:21:18.042Z,7.10
2023-03-07T21:23:47.444Z,7.70
2023-03-07T21:26:17.372Z,8.77
2023-03-07T21:28:45.365Z,8.40
2023-03-07T21:31:18.380Z,6.93
2023-03-07T21:33:48.050Z,9.30
2023-03-07T21:36:16.521Z,8.00
2023-03-07T21:38:45.703Z,6.03
2023-03-07T21:41:16.016Z,7.05
2023-03-07T21:43:44.251Z,6.60
2023-03-07T21:46:14.372Z,6.40
2023-03-07T21:48:42.661Z,9.77
2023-03-07T21:51:11.200Z,8.00
2023-03-07T21:53:39.047Z,8.50
2023-03-07T21:56:08.633Z,7.33
2023-03-07T21:58:39.542Z,8.70
2023-03-07T22:01:12.321Z,7.17
2023-03-07T22:03:40.608Z,6.30
2023-03-07T22:06:10.014Z,7.60
2023-03-07T22:08:38.171Z,8.83
2023-03-07T22:11:08.229Z,7.60
2023-03-07T22:13:39.426Z,6.40
2023-03-07T22:16:09.465Z,6.37
2023-03-07T22:18:37.333Z,6.57
2023-03-07T22:21:09.570Z,6.60
2023-03-07T22:23:37.541Z,6.43
2023-03-07T22:26:06.763Z,7.60
2023-03-07T22:28:35.303Z,6.90
2023-03-07T22:31:06.478Z,6.20
2023-03-07T22:33:34.331Z,6.77
2023-03-07T22:36:04.179Z,8.00
2023-03-07T22:38:32.090Z,7.83
2023-03-07T22:41:03.357Z,6.63
2023-03-07T22:43:32.383Z,5.63
2023-03-07T22:46:00.350Z,6.70
2023-03-07T22:48:30.050Z,13.83
2023-03-07T22:50:58.187Z,5.83
2023-03-07T22:53:28.598Z,6.67
2023-03-07T22:55:56.502Z,6.50
2023-03-07T22:58:24.181Z,6.10
2023-03-07T23:00:52.596Z,5.60
2023-03-07T23:03:20.467Z,6.23
2023-03-07T23:05:49.553Z,6.43
2023-03-07T23:08:17.384Z,8.30
2023-03-07T23:10:45.167Z,5.50
2023-03-07T23:13:12.892Z,6.50
2023-03-07T23:15:41.482Z,5.90
2023-03-07T23:18:09.609Z,7.10
2023-03-07T23:20:38.774Z,13.30
2023-03-07T23:23:07.857Z,8.03
2023-03-07T23:25:40.127Z,6.40
2023-03-07T23:28:07.846Z,7.70
2023-03-07T23:30:36.500Z,6.30
2023-03-07T23:33:04.678Z,6.90
2023-03-07T23:35:33.445Z,7.60
2023-03-07T23:38:01.321Z,6.80
2023-03-07T23:40:30.474Z,9.70
2023-03-07T23:42:58.965Z,7.17
2023-03-07T23:45:27.633Z,7.20
2023-03-07T23:47:55.600Z,6.97
2023-03-07T23:50:23.350Z,7.90
2023-03-07T23:52:51.103Z,9.00
2023-03-07T23:55:18.996Z,8.07
2023-03-07T23:57:48.602Z,7.00
